Cedar Lake, Indiana
Current Conditions -  °F | °C
As of 6:55 PM on Sunday 23 Nov 2014 (Local Time) from KIGQ Reporting Station
Moderate Rain Moderate Rain  
Wind Chill: 50°   Ceiling: 600
Heat Index: 50°   Visibility: 7mi
Dew Point: 50°   Wind: 12mph
Humidity: 97%   Direction: 130°SE
Pressure: 29.33"   Gusts: NA
Location:  41.37°N, 87.42°W
Report Text: KIGQ 240055Z AUTO 13010KT 7SM RA OVC006 10/10 A2933 RMK AO2 P0011 T01020098
Loading
Personal Weather Stations






























Interactive Weather Map New forecast layout! Learn more

10-Day Weather Forecast

Advertisements
Track Severe Weather on mobile